createdAt,value
2023-03-12T00:06:10.710Z,74.43
2023-03-12T00:12:30.564Z,74.24
2023-03-12T00:18:50.623Z,74.18
2023-03-12T00:25:13.592Z,73.89
2023-03-12T00:31:33.675Z,73.58
2023-03-12T00:37:56.687Z,73.29
2023-03-12T00:44:16.732Z,73.39
2023-03-12T00:50:39.626Z,73.16
2023-03-12T00:56:59.782Z,73.31
2023-03-12T01:03:22.629Z,72.93
2023-03-12T01:09:42.679Z,72.77
2023-03-12T01:16:05.692Z,72.86
2023-03-12T01:22:25.573Z,72.02
2023-03-12T01:28:48.578Z,72.41
2023-03-12T01:35:08.717Z,72
2023-03-12T01:41:31.606Z,72.42
2023-03-12T01:47:51.632Z,72.29
2023-03-12T01:54:14.664Z,72.48
2023-03-12T02:00:34.615Z,72.25
2023-03-12T02:06:57.617Z,71.92
2023-03-12T02:13:17.601Z,71.99
2023-03-12T02:19:40.706Z,71.96
2023-03-12T02:26:00.577Z,71.35
2023-03-12T02:32:23.620Z,71.65
2023-03-12T02:38:43.665Z,71.13
2023-03-12T02:45:06.602Z,70.89
2023-03-12T02:51:26.755Z,70.58
2023-03-12T02:57:49.635Z,70.75
2023-03-12T03:04:09.742Z,69.81
2023-03-12T03:10:32.682Z,69.84
2023-03-12T03:16:52.685Z,69.4
2023-03-12T03:23:15.584Z,69.25
2023-03-12T03:29:35.614Z,69.49
2023-03-12T03:35:58.774Z,69.25
2023-03-12T03:42:18.586Z,68.84
2023-03-12T03:48:41.683Z,69.03
2023-03-12T03:55:01.705Z,68.9
2023-03-12T04:01:24.566Z,69.1
2023-03-12T04:07:44.900Z,69.34
2023-03-12T04:14:07.580Z,69.04
2023-03-12T04:37:13.104Z,68.43
2023-03-12T04:43:32.570Z,68.27
2023-03-12T04:49:55.609Z,68.42
2023-03-12T04:56:15.618Z,68.44
2023-03-12T05:02:38.693Z,68.7
2023-03-12T05:08:58.610Z,71.65
2023-03-12T05:15:21.646Z,73.18
2023-03-12T05:21:41.597Z,75.27
2023-03-12T05:28:04.564Z,77.61
2023-03-12T05:34:24.707Z,80.14
2023-03-12T05:40:47.661Z,81.55
2023-03-12T05:47:07.651Z,82.75
2023-03-12T05:53:30.672Z,83.77
2023-03-12T05:59:50.636Z,84.38
2023-03-12T06:06:13.635Z,84.85
2023-03-12T06:12:33.675Z,85.1
2023-03-12T06:18:56.582Z,84.96
2023-03-12T06:25:16.690Z,84.8
2023-03-12T06:31:39.814Z,84.9
2023-03-12T06:37:59.587Z,84.8
2023-03-12T06:44:26.591Z,85
2023-03-12T06:50:46.601Z,84.75
2023-03-12T06:57:09.576Z,84.39
2023-03-12T07:03:29.575Z,84.13
2023-03-12T07:09:52.685Z,83.59
2023-03-12T07:16:12.722Z,83.82
2023-03-12T07:22:35.579Z,83.7
2023-03-12T07:28:55.609Z,83.25
2023-03-12T07:35:18.692Z,82.87
2023-03-12T07:41:38.604Z,82.64
2023-03-12T07:48:01.798Z,82.59
2023-03-12T07:54:21.594Z,81.88
2023-03-12T08:00:44.646Z,82.35
2023-03-12T08:07:06.318Z,82.33
2023-03-12T08:13:27.870Z,82.81
2023-03-12T08:19:47.570Z,82.76
2023-03-12T08:26:10.638Z,82.85
2023-03-12T08:32:30.735Z,82.55
2023-03-12T08:38:53.677Z,82.62
2023-03-12T08:45:13.628Z,82.61
2023-03-12T08:51:36.618Z,83.11
2023-03-12T08:57:56.666Z,83.32
2023-03-12T09:04:19.829Z,84.05
2023-03-12T09:10:39.602Z,84.66
2023-03-12T09:17:02.745Z,85.05
2023-03-12T09:32:33.593Z,86.02
2023-03-12T09:38:53.572Z,86.56
2023-03-12T09:45:16.613Z,86.96
2023-03-12T09:51:36.647Z,87.42
2023-03-12T09:57:59.646Z,87.11
